»·PEaware :: DAL2189 KSLC-KPDX

DAL2189 :: KSLC-KPDX

FLIGHT INFORMATION

Flight Status: Arrived
Operator:
Delta Air Lines
More flights by this operator :: More flights under this callsign
Pilot: Joe P. (13940)
Aircraft: BOEING 737-700
(B737)
More flights by this aircraft type
Origin: KSLC Salt Lake City Intl
United States
Destination: KPDX Portland Intl
United States
More flights between these airports :: More routes between these airports
Route: CGULL1 TWF J15 BOI J163 BKE JOTBA HHOOD4
File this flight plan on PilotEdge
Remarks: KSEA -PBN / A1B1C1D1L1O1S1 NAV / RNVD1E2A1 DOF / 180901 REG / N389DA EET / KZSE0056 RVR / 200 PER / C
Altitude:
(Current/Filed)
360ft
Speed:
(Current/Filed)
453kts
Departed: 01-Sep-18 07:22 AM
Arrived: 01-Sep-18 08:57 AM
Distance/Time
Traveled:
546nm/1:34
Distance/Time
To Go:
Arrived

Flight Plot

Page will automatically refresh every two minutes.

Flight plan parsing failed; only flown route is shown


Map Options




Map Legend


Flown Route
Filed Route
Departure Airport
Arrival Airport
Navaid (VOR, NDB)
Fix

Horizontal Profiles

Position Reports

Time Latitude Longitude Heading Altitude Ground
Speed
01-Sep-18 06:08 40.788528 -111.980747 282 4235ft 0kts
01-Sep-18 06:09 40.788528 -111.980747 282 4235ft 0kts
01-Sep-18 06:10 40.788528 -111.980747 282 4235ft 0kts
01-Sep-18 06:11 40.788528 -111.980747 282 4235ft 0kts
01-Sep-18 06:12 40.788528 -111.980747 282 4235ft 0kts
01-Sep-18 06:13 40.788528 -111.980747 282 4235ft 0kts
01-Sep-18 06:14 40.788528 -111.980747 282 4235ft 0kts
01-Sep-18 06:15 40.788528 -111.980747 282 4235ft 0kts
01-Sep-18 06:16 40.788528 -111.980747 282 4235ft 0kts
01-Sep-18 06:17 40.788528 -111.980747 282 4235ft 0kts
01-Sep-18 06:18 40.788528 -111.980747 282 4235ft 0kts
01-Sep-18 06:19 40.788528 -111.980747 282 4235ft 0kts
01-Sep-18 06:20 40.788528 -111.980747 282 4235ft 0kts
01-Sep-18 06:21 40.788528 -111.980747 282 4235ft 0kts
01-Sep-18 06:22 40.788528 -111.980747 282 4235ft 0kts
01-Sep-18 06:23 40.788528 -111.980747 282 4235ft 0kts
01-Sep-18 06:24 40.788528 -111.980747 282 4235ft 0kts
01-Sep-18 06:25 40.788528 -111.980747 282 4235ft 0kts
01-Sep-18 06:26 40.788528 -111.980747 282 4235ft 0kts
01-Sep-18 06:27 40.788528 -111.980747 282 4235ft 0kts
01-Sep-18 06:28 40.788528 -111.980747 282 4235ft 0kts
01-Sep-18 06:29 40.788528 -111.980747 282 4235ft 0kts
01-Sep-18 06:30 40.788528 -111.980747 282 4235ft 0kts
01-Sep-18 06:31 40.788528 -111.980747 282 4235ft 0kts
01-Sep-18 06:32 40.788528 -111.980747 282 4235ft 0kts
01-Sep-18 06:33 40.788528 -111.980747 282 4235ft 0kts
01-Sep-18 06:35 40.788528 -111.980747 282 4235ft 0kts
01-Sep-18 06:36 40.788528 -111.980747 282 4235ft 0kts
01-Sep-18 06:37 40.788528 -111.980747 282 4235ft 0kts
01-Sep-18 06:38 40.788528 -111.980747 282 4235ft 0kts
01-Sep-18 06:39 40.788528 -111.980747 282 4235ft 0kts
01-Sep-18 06:40 40.788528 -111.980747 282 4235ft 0kts
01-Sep-18 06:41 40.788528 -111.980747 282 4235ft 0kts
01-Sep-18 06:42 40.788528 -111.980747 282 4235ft 0kts
01-Sep-18 06:43 40.788528 -111.980747 282 4235ft 0kts
01-Sep-18 06:44 40.788528 -111.980747 282 4235ft 0kts
01-Sep-18 06:45 40.788528 -111.980747 282 4235ft 0kts
01-Sep-18 06:46 40.788528 -111.980747 282 4235ft 0kts
01-Sep-18 06:47 40.788528 -111.980747 282 4235ft 0kts
01-Sep-18 06:48 40.788528 -111.980747 282 4235ft 0kts
01-Sep-18 06:49 40.788528 -111.980747 282 4235ft 0kts
01-Sep-18 06:50 40.788528 -111.980747 282 4235ft 0kts
01-Sep-18 06:51 40.788528 -111.980747 282 4235ft 0kts
01-Sep-18 06:52 40.788528 -111.980747 282 4235ft 0kts
01-Sep-18 06:53 40.788528 -111.980747 282 4235ft 0kts
01-Sep-18 06:54 40.788528 -111.980747 282 4235ft 0kts
01-Sep-18 06:55 40.788528 -111.980747 282 4235ft 0kts
01-Sep-18 06:56 40.788528 -111.980747 282 4235ft 0kts
01-Sep-18 06:57 40.788528 -111.980747 282 4235ft 0kts
01-Sep-18 06:57 40.788528 -111.980747 282 4235ft 0kts
01-Sep-18 06:58 40.788528 -111.980747 282 4235ft 0kts
01-Sep-18 07:00 40.788528 -111.980747 282 4235ft 0kts
01-Sep-18 07:01 40.788528 -111.980747 282 4235ft 0kts
01-Sep-18 07:01 40.788528 -111.980747 282 4235ft 0kts
01-Sep-18 07:02 40.788528 -111.980747 282 4235ft 0kts
01-Sep-18 07:03 40.788528 -111.980747 282 4235ft 0kts
01-Sep-18 07:04 40.788528 -111.980747 282 4235ft 0kts
01-Sep-18 07:05 40.788528 -111.980747 282 4235ft 0kts
01-Sep-18 07:06 40.788528 -111.980747 282 4235ft 0kts
01-Sep-18 07:07 40.788514 -111.980668 282 4235ft 2kts
01-Sep-18 07:08 40.788373 -111.979831 282 4235ft 2kts
01-Sep-18 07:09 40.788333 -111.979591 282 4235ft 0kts
01-Sep-18 07:10 40.788333 -111.979591 282 4235ft 0kts
01-Sep-18 07:11 40.788333 -111.979591 282 4235ft 0kts
01-Sep-18 07:12 40.788333 -111.979591 282 4235ft 0kts
01-Sep-18 07:13 40.788333 -111.979591 282 4235ft 0kts
01-Sep-18 07:14 40.788333 -111.979591 282 4235ft 0kts
01-Sep-18 07:15 40.788333 -111.979591 282 4235ft 0kts
01-Sep-18 07:16 40.789458 -111.979796 42 4235ft 0kts
01-Sep-18 07:17 40.789726 -111.978447 85 4235ft 8kts
01-Sep-18 07:18 40.791889 -111.977294 351 4235ft 14kts
01-Sep-18 07:19 40.797094 -111.978000 353 4235ft 20kts
01-Sep-18 07:20 40.803054 -111.978672 356 4235ft 20kts
01-Sep-18 07:21 40.807527 -111.978594 85 4235ft 3kts
01-Sep-18 07:22 40.807504 -111.977722 102 4235ft 8kts
01-Sep-18 07:23 40.802807 -111.976294 175 4235ft 91kts
01-Sep-18 07:24 40.756309 -111.982034 206 5760ft 221kts
01-Sep-18 07:25 40.693597 -112.025616 207 8407ft 267kts
01-Sep-18 07:26 40.627178 -112.073387 223 11671ft 279kts
01-Sep-18 07:27 40.630363 -112.169077 315 14246ft 321kts
01-Sep-18 07:28 40.720238 -112.225939 335 15671ft 386kts
01-Sep-18 07:29 40.820214 -112.283019 335 18330ft 397kts
01-Sep-18 07:30 40.923594 -112.341985 334 20694ft 411kts
01-Sep-18 07:31 41.030058 -112.403094 334 22777ft 423kts
01-Sep-18 07:32 41.134068 -112.479535 325 24617ft 432kts
01-Sep-18 07:33 41.232472 -112.573156 320 26323ft 440kts
01-Sep-18 07:34 41.323080 -112.684776 311 27829ft 447kts
01-Sep-18 07:35 41.407012 -112.808630 311 29146ft 455kts
01-Sep-18 07:36 41.490162 -112.936013 310 30840ft 451kts
01-Sep-18 07:37 41.571630 -113.061538 310 32544ft 444kts
01-Sep-18 07:38 41.652244 -113.185856 311 34111ft 438kts
01-Sep-18 07:39 41.731735 -113.308447 310 35466ft 434kts
01-Sep-18 07:40 41.810763 -113.431174 310 36129ft 437kts
01-Sep-18 07:41 41.889323 -113.553771 310 36131ft 431kts
01-Sep-18 07:42 41.967666 -113.676397 310 36131ft 431kts
01-Sep-18 07:43 42.045461 -113.798550 309 36131ft 430kts
01-Sep-18 07:44 42.123053 -113.921510 309 36132ft 430kts
01-Sep-18 07:45 42.200399 -114.044120 310 36134ft 430kts
01-Sep-18 07:46 42.277992 -114.167161 310 36136ft 430kts
01-Sep-18 07:47 42.355539 -114.290022 309 36138ft 431kts
01-Sep-18 07:48 42.433080 -114.414292 310 36140ft 435kts
01-Sep-18 07:49 42.511949 -114.539272 312 36139ft 435kts
01-Sep-18 07:50 42.591646 -114.662676 312 36139ft 435kts
01-Sep-18 07:51 42.671102 -114.786545 312 36139ft 434kts
01-Sep-18 07:52 42.750656 -114.910356 312 36141ft 434kts
01-Sep-18 07:53 42.829967 -115.034232 312 36140ft 434kts
01-Sep-18 07:54 42.909053 -115.158555 312 36138ft 433kts
01-Sep-18 07:55 42.987718 -115.282866 312 36134ft 433kts
01-Sep-18 07:56 43.066519 -115.407922 311 36127ft 433kts
01-Sep-18 07:57 43.144712 -115.532599 311 36127ft 432kts
01-Sep-18 07:58 43.223046 -115.658019 311 36126ft 432kts
01-Sep-18 07:59 43.300915 -115.783252 311 36126ft 432kts
01-Sep-18 08:00 43.378823 -115.908628 311 36127ft 431kts
01-Sep-18 08:01 43.456608 -116.034866 311 36124ft 431kts
01-Sep-18 08:02 43.533949 -116.161206 311 36120ft 431kts
01-Sep-18 08:03 43.620446 -116.275077 319 36119ft 430kts
01-Sep-18 08:04 43.709791 -116.384318 319 36115ft 430kts
01-Sep-18 08:05 43.799280 -116.494582 319 36115ft 430kts
01-Sep-18 08:06 43.888753 -116.604384 319 36117ft 430kts
01-Sep-18 08:07 43.978039 -116.714743 319 36122ft 430kts
01-Sep-18 08:08 44.067022 -116.825330 318 36121ft 427kts
01-Sep-18 08:09 44.155563 -116.935932 318 36121ft 428kts
01-Sep-18 08:10 44.244090 -117.046988 318 36124ft 428kts
01-Sep-18 08:11 44.332365 -117.158188 318 36129ft 428kts
01-Sep-18 08:12 44.420636 -117.269881 318 36139ft 428kts
01-Sep-18 08:13 44.508720 -117.381793 318 36147ft 427kts
01-Sep-18 08:14 44.596733 -117.494123 318 36154ft 427kts
01-Sep-18 08:15 44.684464 -117.606137 317 36158ft 426kts
01-Sep-18 08:16 44.772073 -117.719149 317 36159ft 426kts
01-Sep-18 08:17 44.842486 -117.850217 288 36162ft 431kts
01-Sep-18 08:18 44.867266 -118.015841 282 36160ft 431kts
01-Sep-18 08:19 44.888929 -118.181937 282 36161ft 431kts
01-Sep-18 08:20 44.910500 -118.348559 282 36162ft 431kts
01-Sep-18 08:21 44.931987 -118.514763 282 36162ft 430kts
01-Sep-18 08:22 44.952932 -118.680654 282 36162ft 429kts
01-Sep-18 08:23 44.973606 -118.847075 282 36163ft 429kts
01-Sep-18 08:24 44.993950 -119.013121 281 36155ft 429kts
01-Sep-18 08:25 45.014087 -119.179638 281 36151ft 429kts
01-Sep-18 08:26 45.033918 -119.345741 281 36153ft 429kts
01-Sep-18 08:27 45.053538 -119.512236 281 36150ft 429kts
01-Sep-18 08:28 45.072902 -119.678718 281 35940ft 427kts
01-Sep-18 08:29 45.091887 -119.844087 281 33214ft 427kts
01-Sep-18 08:30 45.110571 -120.009025 280 30768ft 416kts
01-Sep-18 08:31 45.128630 -120.167539 280 28730ft 400kts
01-Sep-18 08:32 45.145426 -120.320546 280 26762ft 388kts
01-Sep-18 08:33 45.161573 -120.470098 281 24801ft 379kts
01-Sep-18 08:34 45.200837 -120.606898 298 23063ft 378kts
01-Sep-18 08:35 45.250459 -120.735839 298 21453ft 368kts
01-Sep-18 08:36 45.298892 -120.861996 298 19888ft 359kts
01-Sep-18 08:37 45.345985 -120.985843 298 18358ft 352kts
01-Sep-18 08:38 45.392169 -121.107468 298 16607ft 344kts
01-Sep-18 08:39 45.433888 -121.227826 288 15075ft 337kts
01-Sep-18 08:40 45.458648 -121.354700 286 13583ft 320kts
01-Sep-18 08:41 45.481955 -121.472879 287 12119ft 299kts
01-Sep-18 08:43 45.503695 -121.582929 287 10652ft 277kts
01-Sep-18 08:44 45.522576 -121.679493 287 9774ft 239kts
01-Sep-18 08:45 45.532212 -121.772910 274 7892ft 234kts
01-Sep-18 08:46 45.534773 -121.856809 275 7120ft 185kts
01-Sep-18 08:47 45.537143 -121.927126 275 7235ft 177kts
01-Sep-18 08:48 45.540439 -121.998140 277 6964ft 180kts
01-Sep-18 08:49 45.530848 -122.065445 240 6495ft 182kts
01-Sep-18 08:50 45.502537 -122.125434 240 6086ft 181kts
01-Sep-18 08:51 45.475491 -122.186103 240 5309ft 179kts
01-Sep-18 08:52 45.455588 -122.248921 281 4068ft 172kts
01-Sep-18 08:53 45.474751 -122.311809 298 3701ft 179kts
01-Sep-18 08:54 45.498291 -122.373191 299 3308ft 186kts
01-Sep-18 08:55 45.520998 -122.431377 299 2379ft 150kts
01-Sep-18 08:56 45.541811 -122.484678 299 1569ft 153kts
01-Sep-18 08:57 45.562101 -122.536716 296 772ft 148kts
01-Sep-18 08:58 45.582169 -122.588180 296 28ft 144kts
01-Sep-18 08:59 45.588469 -122.605823 230 26ft 0kts
01-Sep-18 09:00 45.588468 -122.605824 230 26ft 0kts
01-Sep-18 09:01 45.588171 -122.606670 282 26ft 12kts
01-Sep-18 09:02 45.586616 -122.608868 55 26ft 17kts
01-Sep-18 09:03 45.590387 -122.603260 43 26ft 23kts
01-Sep-18 09:04 45.592503 -122.597502 39 26ft 10kts
01-Sep-18 09:04 45.591755 -122.593851 150 26ft 5kts
01-Sep-18 09:06 45.591274 -122.594140 203 26ft 0kts
01-Sep-18 09:07 45.591274 -122.594140 203 26ft 0kts
01-Sep-18 09:08 45.591274 -122.594140 203 26ft 0kts
01-Sep-18 09:08 45.591274 -122.594140 203 26ft 0kts
01-Sep-18 09:09 45.591274 -122.594140 203 26ft 0kts
01-Sep-18 09:10 45.591274 -122.594140 203 26ft 0kts
01-Sep-18 09:11 45.591274 -122.594140 203 26ft 0kts
01-Sep-18 09:13 45.591274 -122.594140 203 26ft 0kts

Navigation Log

Ident Type
Flight plan parsing failed, navigation log unavailable